sensor_id;sensor_type;location;lat;lon;timestamp;P1;durP1;ratioP1;P2;durP2;ratioP2
46815;SDS011;32787;53.316;8.670;2023-07-24T00:01:08;11.93;;;5.80;;
46815;SDS011;32787;53.316;8.670;2023-07-24T00:03:34;9.63;;;5.72;;
46815;SDS011;32787;53.316;8.670;2023-07-24T00:05:59;9.38;;;5.47;;
46815;SDS011;32787;53.316;8.670;2023-07-24T00:08:25;8.63;;;5.50;;
46815;SDS011;32787;53.316;8.670;2023-07-24T00:10:51;8.35;;;5.60;;
46815;SDS011;32787;53.316;8.670;2023-07-24T00:13:16;9.70;;;5.65;;
46815;SDS011;32787;53.316;8.670;2023-07-24T00:15:42;8.60;;;5.57;;
46815;SDS011;32787;53.316;8.670;2023-07-24T00:18:08;10.95;;;5.60;;
46815;SDS011;32787;53.316;8.670;2023-07-24T00:20:33;9.82;;;5.30;;
46815;SDS011;32787;53.316;8.670;2023-07-24T00:22:59;8.60;;;4.97;;
46815;SDS011;32787;53.316;8.670;2023-07-24T00:25:24;10.10;;;5.43;;
46815;SDS011;32787;53.316;8.670;2023-07-24T00:27:50;8.50;;;4.78;;
46815;SDS011;32787;53.316;8.670;2023-07-24T00:30:16;9.05;;;4.80;;
46815;SDS011;32787;53.316;8.670;2023-07-24T00:32:41;10.82;;;5.53;;
46815;SDS011;32787;53.316;8.670;2023-07-24T00:35:07;9.70;;;4.88;;
46815;SDS011;32787;53.316;8.670;2023-07-24T00:37:33;9.60;;;5.20;;
46815;SDS011;32787;53.316;8.670;2023-07-24T00:39:59;11.32;;;5.13;;
46815;SDS011;32787;53.316;8.670;2023-07-24T00:42:24;7.78;;;4.75;;
46815;SDS011;32787;53.316;8.670;2023-07-24T00:44:50;7.82;;;4.70;;
46815;SDS011;32787;53.316;8.670;2023-07-24T00:47:16;9.60;;;4.90;;
46815;SDS011;32787;53.316;8.670;2023-07-24T00:49:42;9.77;;;5.03;;
46815;SDS011;32787;53.316;8.670;2023-07-24T00:52:09;9.60;;;4.93;;
46815;SDS011;32787;53.316;8.670;2023-07-24T00:54:36;9.88;;;5.15;;
46815;SDS011;32787;53.316;8.670;2023-07-24T00:57:02;7.32;;;4.80;;
46815;SDS011;32787;53.316;8.670;2023-07-24T00:59:29;7.47;;;4.55;;
46815;SDS011;32787;53.316;8.670;2023-07-24T01:01:54;9.35;;;5.35;;
46815;SDS011;32787;53.316;8.670;2023-07-24T01:04:20;8.45;;;5.38;;
46815;SDS011;32787;53.316;8.670;2023-07-24T01:06:47;7.80;;;5.03;;
46815;SDS011;32787;53.316;8.670;2023-07-24T01:09:12;9.10;;;4.93;;
46815;SDS011;32787;53.316;8.670;2023-07-24T01:11:57;9.52;;;4.80;;
46815;SDS011;32787;53.316;8.670;2023-07-24T01:14:32;10.20;;;4.97;;
46815;SDS011;32787;53.316;8.670;2023-07-24T01:17:00;7.57;;;4.78;;
46815;SDS011;32787;53.316;8.670;2023-07-24T01:27:48;9.90;;;5.20;;
46815;SDS011;32787;53.316;8.670;2023-07-24T01:30:17;10.60;;;5.90;;
46815;SDS011;32787;53.316;8.670;2023-07-24T01:32:43;9.38;;;5.55;;
46815;SDS011;32787;53.316;8.670;2023-07-24T01:35:09;10.70;;;5.70;;
46815;SDS011;32787;53.316;8.670;2023-07-24T01:37:35;11.25;;;5.68;;
46815;SDS011;32787;53.316;8.670;2023-07-24T01:40:04;9.00;;;5.53;;
46815;SDS011;32787;53.316;8.670;2023-07-24T01:42:31;10.23;;;5.18;;
46815;SDS011;32787;53.316;8.670;2023-07-24T01:44:58;16.33;;;5.85;;
46815;SDS011;32787;53.316;8.670;2023-07-24T01:47:23;10.32;;;5.15;;
46815;SDS011;32787;53.316;8.670;2023-07-24T01:49:49;10.90;;;5.38;;
46815;SDS011;32787;53.316;8.670;2023-07-24T01:52:15;8.85;;;5.80;;
46815;SDS011;32787;53.316;8.670;2023-07-24T01:54:41;9.40;;;5.18;;
46815;SDS011;32787;53.316;8.670;2023-07-24T01:57:06;10.43;;;5.30;;
46815;SDS011;32787;53.316;8.670;2023-07-24T01:59:32;9.20;;;5.55;;
46815;SDS011;32787;53.316;8.670;2023-07-24T02:01:57;10.32;;;5.70;;
46815;SDS011;32787;53.316;8.670;2023-07-24T02:04:23;11.77;;;5.35;;
46815;SDS011;32787;53.316;8.670;2023-07-24T02:06:49;10.52;;;5.63;;
46815;SDS011;32787;53.316;8.670;2023-07-24T02:09:15;9.88;;;5.72;;
46815;SDS011;32787;53.316;8.670;2023-07-24T02:11:42;10.68;;;6.00;;
46815;SDS011;32787;53.316;8.670;2023-07-24T02:14:08;9.50;;;5.97;;
46815;SDS011;32787;53.316;8.670;2023-07-24T02:16:33;13.15;;;6.47;;
46815;SDS011;32787;53.316;8.670;2023-07-24T02:18:59;11.90;;;6.22;;
46815;SDS011;32787;53.316;8.670;2023-07-24T02:21:24;10.60;;;5.95;;
46815;SDS011;32787;53.316;8.670;2023-07-24T02:23:50;12.02;;;7.38;;
46815;SDS011;32787;53.316;8.670;2023-07-24T02:26:16;11.05;;;6.65;;
46815;SDS011;32787;53.316;8.670;2023-07-24T02:28:41;12.43;;;6.78;;
46815;SDS011;32787;53.316;8.670;2023-07-24T02:31:07;11.40;;;6.60;;
46815;SDS011;32787;53.316;8.670;2023-07-24T02:33:32;12.55;;;7.47;;
46815;SDS011;32787;53.316;8.670;2023-07-24T02:35:58;16.30;;;7.22;;
46815;SDS011;32787;53.316;8.670;2023-07-24T02:38:23;13.65;;;7.75;;
46815;SDS011;32787;53.316;8.670;2023-07-24T02:40:49;12.40;;;7.28;;
46815;SDS011;32787;53.316;8.670;2023-07-24T02:43:15;12.45;;;7.38;;
46815;SDS011;32787;53.316;8.670;2023-07-24T02:45:40;11.07;;;7.50;;
46815;SDS011;32787;53.316;8.670;2023-07-24T02:48:06;13.07;;;7.95;;
46815;SDS011;32787;53.316;8.670;2023-07-24T02:50:35;12.55;;;7.78;;
46815;SDS011;32787;53.316;8.670;2023-07-24T02:53:00;13.43;;;8.18;;
46815;SDS011;32787;53.316;8.670;2023-07-24T02:55:27;11.45;;;7.10;;
46815;SDS011;32787;53.316;8.670;2023-07-24T02:57:53;13.60;;;7.70;;
46815;SDS011;32787;53.316;8.670;2023-07-24T03:00:18;13.10;;;7.10;;
46815;SDS011;32787;53.316;8.670;2023-07-24T03:02:44;11.82;;;7.88;;
46815;SDS011;32787;53.316;8.670;2023-07-24T03:05:10;16.20;;;8.30;;
46815;SDS011;32787;53.316;8.670;2023-07-24T03:07:35;13.52;;;8.27;;
46815;SDS011;32787;53.316;8.670;2023-07-24T03:10:01;14.32;;;8.43;;
46815;SDS011;32787;53.316;8.670;2023-07-24T03:12:27;12.80;;;7.80;;
46815;SDS011;32787;53.316;8.670;2023-07-24T03:14:53;14.40;;;8.68;;
46815;SDS011;32787;53.316;8.670;2023-07-24T03:17:19;10.63;;;7.13;;
46815;SDS011;32787;53.316;8.670;2023-07-24T03:19:44;12.95;;;7.80;;
46815;SDS011;32787;53.316;8.670;2023-07-24T03:22:10;13.00;;;8.13;;
46815;SDS011;32787;53.316;8.670;2023-07-24T03:24:36;10.40;;;6.97;;
46815;SDS011;32787;53.316;8.670;2023-07-24T03:27:02;11.07;;;6.60;;
46815;SDS011;32787;53.316;8.670;2023-07-24T03:29:27;13.05;;;7.97;;
46815;SDS011;32787;53.316;8.670;2023-07-24T03:31:53;12.43;;;7.45;;
46815;SDS011;32787;53.316;8.670;2023-07-24T03:34:19;13.13;;;7.25;;
46815;SDS011;32787;53.316;8.670;2023-07-24T03:36:45;11.50;;;7.88;;
46815;SDS011;32787;53.316;8.670;2023-07-24T03:39:10;11.60;;;7.97;;
46815;SDS011;32787;53.316;8.670;2023-07-24T03:41:36;11.73;;;8.02;;
46815;SDS011;32787;53.316;8.670;2023-07-24T03:44:06;11.95;;;7.95;;
46815;SDS011;32787;53.316;8.670;2023-07-24T03:46:32;12.50;;;7.60;;
46815;SDS011;32787;53.316;8.670;2023-07-24T03:48:58;12.85;;;7.40;;
46815;SDS011;32787;53.316;8.670;2023-07-24T03:51:24;14.10;;;7.93;;
46815;SDS011;32787;53.316;8.670;2023-07-24T03:53:49;11.43;;;7.47;;
46815;SDS011;32787;53.316;8.670;2023-07-24T03:56:15;13.18;;;8.15;;
46815;SDS011;32787;53.316;8.670;2023-07-24T03:58:41;13.10;;;8.27;;
46815;SDS011;32787;53.316;8.670;2023-07-24T04:01:07;11.80;;;7.47;;
46815;SDS011;32787;53.316;8.670;2023-07-24T04:03:33;14.48;;;7.45;;
46815;SDS011;32787;53.316;8.670;2023-07-24T04:05:59;11.60;;;6.88;;
46815;SDS011;32787;53.316;8.670;2023-07-24T04:08:24;11.75;;;7.40;;
46815;SDS011;32787;53.316;8.670;2023-07-24T04:10:50;11.75;;;6.80;;
46815;SDS011;32787;53.316;8.670;2023-07-24T04:13:15;13.93;;;7.72;;
46815;SDS011;32787;53.316;8.670;2023-07-24T04:15:41;13.85;;;6.75;;
46815;SDS011;32787;53.316;8.670;2023-07-24T04:18:07;11.88;;;7.50;;
46815;SDS011;32787;53.316;8.670;2023-07-24T04:20:32;10.57;;;6.97;;
46815;SDS011;32787;53.316;8.670;2023-07-24T04:22:58;11.40;;;7.40;;
46815;SDS011;32787;53.316;8.670;2023-07-24T04:25:23;14.23;;;6.68;;
46815;SDS011;32787;53.316;8.670;2023-07-24T04:27:49;12.23;;;6.57;;
46815;SDS011;32787;53.316;8.670;2023-07-24T04:30:14;10.60;;;6.75;;
46815;SDS011;32787;53.316;8.670;2023-07-24T04:32:41;11.40;;;6.63;;
46815;SDS011;32787;53.316;8.670;2023-07-24T04:35:07;11.15;;;6.75;;
46815;SDS011;32787;53.316;8.670;2023-07-24T04:37:33;10.02;;;6.35;;
46815;SDS011;32787;53.316;8.670;2023-07-24T04:39:58;13.52;;;6.55;;
46815;SDS011;32787;53.316;8.670;2023-07-24T04:42:24;11.25;;;6.68;;
46815;SDS011;32787;53.316;8.670;2023-07-24T04:44:49;12.32;;;6.65;;
46815;SDS011;32787;53.316;8.670;2023-07-24T04:47:16;10.93;;;5.90;;
46815;SDS011;32787;53.316;8.670;2023-07-24T04:49:42;9.57;;;6.25;;
46815;SDS011;32787;53.316;8.670;2023-07-24T04:52:07;13.18;;;6.40;;
46815;SDS011;32787;53.316;8.670;2023-07-24T04:54:33;10.68;;;6.38;;
46815;SDS011;32787;53.316;8.670;2023-07-24T04:56:58;11.15;;;5.75;;
46815;SDS011;32787;53.316;8.670;2023-07-24T04:59:24;9.38;;;5.90;;
46815;SDS011;32787;53.316;8.670;2023-07-24T05:01:50;10.90;;;5.93;;
46815;SDS011;32787;53.316;8.670;2023-07-24T05:04:15;10.98;;;5.90;;
46815;SDS011;32787;53.316;8.670;2023-07-24T05:06:41;8.77;;;5.38;;
46815;SDS011;32787;53.316;8.670;2023-07-24T05:09:07;11.40;;;6.07;;
46815;SDS011;32787;53.316;8.670;2023-07-24T05:11:32;9.57;;;5.88;;
46815;SDS011;32787;53.316;8.670;2023-07-24T05:13:58;9.43;;;6.05;;
46815;SDS011;32787;53.316;8.670;2023-07-24T05:16:23;9.02;;;5.47;;
46815;SDS011;32787;53.316;8.670;2023-07-24T05:18:49;10.05;;;5.50;;
46815;SDS011;32787;53.316;8.670;2023-07-24T05:21:14;7.70;;;5.10;;
46815;SDS011;32787;53.316;8.670;2023-07-24T05:23:40;9.93;;;5.35;;
46815;SDS011;32787;53.316;8.670;2023-07-24T05:26:06;9.80;;;5.57;;
46815;SDS011;32787;53.316;8.670;2023-07-24T05:28:31;9.95;;;5.18;;
46815;SDS011;32787;53.316;8.670;2023-07-24T05:31:01;9.02;;;5.05;;
46815;SDS011;32787;53.316;8.670;2023-07-24T05:33:28;9.55;;;5.38;;
46815;SDS011;32787;53.316;8.670;2023-07-24T05:36:00;9.07;;;5.70;;
46815;SDS011;32787;53.316;8.670;2023-07-24T05:38:27;9.55;;;5.50;;
46815;SDS011;32787;53.316;8.670;2023-07-24T05:41:00;10.23;;;5.40;;
46815;SDS011;32787;53.316;8.670;2023-07-24T05:43:27;8.65;;;5.45;;
46815;SDS011;32787;53.316;8.670;2023-07-24T05:45:54;8.00;;;5.30;;
46815;SDS011;32787;53.316;8.670;2023-07-24T05:48:21;10.10;;;5.97;;
46815;SDS011;32787;53.316;8.670;2023-07-24T05:50:47;9.32;;;5.65;;
46815;SDS011;32787;53.316;8.670;2023-07-24T05:53:13;9.48;;;5.70;;
46815;SDS011;32787;53.316;8.670;2023-07-24T05:55:38;9.32;;;5.35;;
46815;SDS011;32787;53.316;8.670;2023-07-24T05:58:04;8.25;;;5.57;;
46815;SDS011;32787;53.316;8.670;2023-07-24T06:00:30;8.45;;;5.43;;
46815;SDS011;32787;53.316;8.670;2023-07-24T06:02:55;8.90;;;5.45;;
46815;SDS011;32787;53.316;8.670;2023-07-24T06:05:21;10.07;;;5.18;;
46815;SDS011;32787;53.316;8.670;2023-07-24T06:07:47;8.05;;;4.78;;
46815;SDS011;32787;53.316;8.670;2023-07-24T06:10:12;9.38;;;5.50;;
46815;SDS011;32787;53.316;8.670;2023-07-24T06:12:38;7.80;;;5.40;;
46815;SDS011;32787;53.316;8.670;2023-07-24T06:15:04;8.50;;;5.35;;
46815;SDS011;32787;53.316;8.670;2023-07-24T06:17:30;9.73;;;5.40;;
46815;SDS011;32787;53.316;8.670;2023-07-24T06:19:56;10.18;;;5.90;;
46815;SDS011;32787;53.316;8.670;2023-07-24T06:22:22;11.70;;;6.35;;
46815;SDS011;32787;53.316;8.670;2023-07-24T06:24:47;8.05;;;5.28;;
46815;SDS011;32787;53.316;8.670;2023-07-24T06:27:13;8.77;;;5.50;;
46815;SDS011;32787;53.316;8.670;2023-07-24T06:29:39;9.95;;;6.10;;
46815;SDS011;32787;53.316;8.670;2023-07-24T06:32:05;9.30;;;5.93;;
46815;SDS011;32787;53.316;8.670;2023-07-24T06:34:31;9.23;;;6.00;;
46815;SDS011;32787;53.316;8.670;2023-07-24T06:36:56;9.27;;;5.88;;
46815;SDS011;32787;53.316;8.670;2023-07-24T06:39:22;11.63;;;6.18;;
46815;SDS011;32787;53.316;8.670;2023-07-24T06:41:47;9.68;;;5.72;;
46815;SDS011;32787;53.316;8.670;2023-07-24T06:44:13;9.57;;;5.97;;
46815;SDS011;32787;53.316;8.670;2023-07-24T06:46:39;9.30;;;6.50;;
46815;SDS011;32787;53.316;8.670;2023-07-24T06:49:04;10.40;;;6.30;;
46815;SDS011;32787;53.316;8.670;2023-07-24T06:51:30;8.95;;;5.50;;
46815;SDS011;32787;53.316;8.670;2023-07-24T06:53:55;7.60;;;5.15;;
46815;SDS011;32787;53.316;8.670;2023-07-24T06:56:21;9.20;;;5.75;;
46815;SDS011;32787;53.316;8.670;2023-07-24T06:58:47;8.40;;;5.55;;
46815;SDS011;32787;53.316;8.670;2023-07-24T07:01:12;11.45;;;6.68;;
46815;SDS011;32787;53.316;8.670;2023-07-24T07:03:38;10.00;;;6.15;;
46815;SDS011;32787;53.316;8.670;2023-07-24T07:06:03;10.43;;;6.53;;
46815;SDS011;32787;53.316;8.670;2023-07-24T07:08:30;10.82;;;5.93;;
46815;SDS011;32787;53.316;8.670;2023-07-24T07:10:56;9.27;;;6.53;;
46815;SDS011;32787;53.316;8.670;2023-07-24T07:13:26;10.48;;;7.10;;
46815;SDS011;32787;53.316;8.670;2023-07-24T07:15:52;11.93;;;6.95;;
46815;SDS011;32787;53.316;8.670;2023-07-24T07:18:17;10.13;;;6.45;;
46815;SDS011;32787;53.316;8.670;2023-07-24T07:20:46;13.32;;;7.60;;
46815;SDS011;32787;53.316;8.670;2023-07-24T07:23:12;9.27;;;6.55;;
46815;SDS011;32787;53.316;8.670;2023-07-24T07:25:38;10.80;;;7.38;;
46815;SDS011;32787;53.316;8.670;2023-07-24T07:28:04;10.73;;;7.53;;
46815;SDS011;32787;53.316;8.670;2023-07-24T07:30:29;10.70;;;7.18;;
46815;SDS011;32787;53.316;8.670;2023-07-24T07:32:55;10.90;;;7.55;;
46815;SDS011;32787;53.316;8.670;2023-07-24T07:35:21;12.07;;;7.82;;
46815;SDS011;32787;53.316;8.670;2023-07-24T07:37:46;11.80;;;7.75;;
46815;SDS011;32787;53.316;8.670;2023-07-24T07:40:12;11.05;;;7.40;;
46815;SDS011;32787;53.316;8.670;2023-07-24T07:42:37;11.93;;;7.28;;
46815;SDS011;32787;53.316;8.670;2023-07-24T07:45:03;13.07;;;8.23;;
46815;SDS011;32787;53.316;8.670;2023-07-24T07:47:29;12.48;;;7.50;;
46815;SDS011;32787;53.316;8.670;2023-07-24T07:49:55;10.43;;;7.22;;
46815;SDS011;32787;53.316;8.670;2023-07-24T07:52:20;13.88;;;8.50;;
46815;SDS011;32787;53.316;8.670;2023-07-24T07:54:47;11.75;;;7.43;;
46815;SDS011;32787;53.316;8.670;2023-07-24T07:57:13;10.63;;;7.63;;
46815;SDS011;32787;53.316;8.670;2023-07-24T07:59:39;11.20;;;7.53;;
46815;SDS011;32787;53.316;8.670;2023-07-24T08:02:05;11.73;;;7.95;;
46815;SDS011;32787;53.316;8.670;2023-07-24T08:04:31;11.07;;;7.32;;
46815;SDS011;32787;53.316;8.670;2023-07-24T08:06:56;11.25;;;7.93;;
46815;SDS011;32787;53.316;8.670;2023-07-24T08:09:22;11.50;;;7.75;;
46815;SDS011;32787;53.316;8.670;2023-07-24T08:11:49;14.90;;;8.65;;
46815;SDS011;32787;53.316;8.670;2023-07-24T08:14:16;11.90;;;7.70;;
46815;SDS011;32787;53.316;8.670;2023-07-24T08:16:42;13.23;;;8.80;;
46815;SDS011;32787;53.316;8.670;2023-07-24T08:19:08;12.45;;;8.13;;
46815;SDS011;32787;53.316;8.670;2023-07-24T08:21:34;13.90;;;8.63;;
46815;SDS011;32787;53.316;8.670;2023-07-24T08:24:00;12.55;;;8.23;;
46815;SDS011;32787;53.316;8.670;2023-07-24T08:26:27;10.23;;;7.53;;
46815;SDS011;32787;53.316;8.670;2023-07-24T08:28:53;12.43;;;7.95;;
46815;SDS011;32787;53.316;8.670;2023-07-24T08:31:19;11.90;;;8.45;;
46815;SDS011;32787;53.316;8.670;2023-07-24T08:33:44;17.13;;;8.27;;
46815;SDS011;32787;53.316;8.670;2023-07-24T08:36:10;12.88;;;7.97;;
46815;SDS011;32787;53.316;8.670;2023-07-24T08:38:37;11.05;;;7.57;;
46815;SDS011;32787;53.316;8.670;2023-07-24T08:41:12;10.38;;;7.38;;
46815;SDS011;32787;53.316;8.670;2023-07-24T08:43:39;13.73;;;8.95;;
46815;SDS011;32787;53.316;8.670;2023-07-24T08:48:35;11.65;;;7.72;;
46815;SDS011;32787;53.316;8.670;2023-07-24T08:51:09;12.05;;;7.90;;
46815;SDS011;32787;53.316;8.670;2023-07-24T08:53:38;10.88;;;7.82;;
46815;SDS011;32787;53.316;8.670;2023-07-24T08:56:05;11.70;;;7.80;;
46815;SDS011;32787;53.316;8.670;2023-07-24T08:58:32;12.85;;;8.07;;
46815;SDS011;32787;53.316;8.670;2023-07-24T09:00:59;11.50;;;8.00;;
46815;SDS011;32787;53.316;8.670;2023-07-24T09:03:25;15.82;;;9.18;;
46815;SDS011;32787;53.316;8.670;2023-07-24T09:05:52;14.30;;;8.95;;
46815;SDS011;32787;53.316;8.670;2023-07-24T09:08:27;11.65;;;8.52;;
46815;SDS011;32787;53.316;8.670;2023-07-24T09:10:54;14.90;;;7.97;;
46815;SDS011;32787;53.316;8.670;2023-07-24T09:13:20;11.43;;;7.70;;
46815;SDS011;32787;53.316;8.670;2023-07-24T09:15:46;13.82;;;7.80;;
46815;SDS011;32787;53.316;8.670;2023-07-24T09:18:12;14.95;;;8.20;;
46815;SDS011;32787;53.316;8.670;2023-07-24T09:20:41;12.93;;;7.65;;
46815;SDS011;32787;53.316;8.670;2023-07-24T09:23:09;10.93;;;7.50;;
46815;SDS011;32787;53.316;8.670;2023-07-24T09:25:36;14.40;;;8.30;;
46815;SDS011;32787;53.316;8.670;2023-07-24T09:28:10;11.60;;;7.68;;
46815;SDS011;32787;53.316;8.670;2023-07-24T09:30:40;12.48;;;8.15;;
46815;SDS011;32787;53.316;8.670;2023-07-24T09:33:07;10.13;;;7.82;;
46815;SDS011;32787;53.316;8.670;2023-07-24T09:35:33;13.85;;;9.05;;
46815;SDS011;32787;53.316;8.670;2023-07-24T09:38:06;14.10;;;9.15;;
46815;SDS011;32787;53.316;8.670;2023-07-24T09:40:39;14.05;;;9.23;;
46815;SDS011;32787;53.316;8.670;2023-07-24T09:43:17;12.90;;;9.38;;
46815;SDS011;32787;53.316;8.670;2023-07-24T09:45:44;13.02;;;9.52;;
46815;SDS011;32787;53.316;8.670;2023-07-24T09:48:10;12.68;;;8.80;;
46815;SDS011;32787;53.316;8.670;2023-07-24T09:50:39;13.88;;;8.95;;
46815;SDS011;32787;53.316;8.670;2023-07-24T09:53:33;11.27;;;8.13;;
46815;SDS011;32787;53.316;8.670;2023-07-24T09:56:09;12.10;;;8.43;;
46815;SDS011;32787;53.316;8.670;2023-07-24T09:58:36;12.82;;;8.40;;
46815;SDS011;32787;53.316;8.670;2023-07-24T10:01:03;13.35;;;9.18;;
46815;SDS011;32787;53.316;8.670;2023-07-24T10:03:43;13.23;;;9.10;;
46815;SDS011;32787;53.316;8.670;2023-07-24T10:06:12;12.90;;;8.13;;
46815;SDS011;32787;53.316;8.670;2023-07-24T10:08:39;10.35;;;7.72;;
46815;SDS011;32787;53.316;8.670;2023-07-24T10:11:09;13.05;;;8.95;;
46815;SDS011;32787;53.316;8.670;2023-07-24T10:13:39;11.30;;;8.18;;
46815;SDS011;32787;53.316;8.670;2023-07-24T10:16:06;14.10;;;8.32;;
46815;SDS011;32787;53.316;8.670;2023-07-24T10:18:32;11.48;;;7.40;;
46815;SDS011;32787;53.316;8.670;2023-07-24T10:21:00;12.40;;;8.50;;
46815;SDS011;32787;53.316;8.670;2023-07-24T10:23:36;11.73;;;8.23;;
46815;SDS011;32787;53.316;8.670;2023-07-24T10:26:05;12.35;;;9.00;;
46815;SDS011;32787;53.316;8.670;2023-07-24T10:28:33;11.43;;;7.97;;
46815;SDS011;32787;53.316;8.670;2023-07-24T10:31:03;10.73;;;8.25;;
46815;SDS011;32787;53.316;8.670;2023-07-24T10:33:34;12.63;;;8.05;;
46815;SDS011;32787;53.316;8.670;2023-07-24T10:36:06;12.98;;;8.70;;
46815;SDS011;32787;53.316;8.670;2023-07-24T10:38:39;11.27;;;7.75;;
46815;SDS011;32787;53.316;8.670;2023-07-24T10:41:06;10.63;;;7.65;;
46815;SDS011;32787;53.316;8.670;2023-07-24T10:43:49;11.68;;;7.80;;
46815;SDS011;32787;53.316;8.670;2023-07-24T10:46:16;13.05;;;8.07;;
46815;SDS011;32787;53.316;8.670;2023-07-24T10:48:44;9.90;;;7.15;;
46815;SDS011;32787;53.316;8.670;2023-07-24T10:51:11;10.55;;;7.15;;
46815;SDS011;32787;53.316;8.670;2023-07-24T10:53:40;10.32;;;6.78;;
46815;SDS011;32787;53.316;8.670;2023-07-24T10:56:13;9.55;;;6.00;;
46815;SDS011;32787;53.316;8.670;2023-07-24T10:58:38;9.05;;;6.10;;
46815;SDS011;32787;53.316;8.670;2023-07-24T11:01:04;8.98;;;5.85;;
46815;SDS011;32787;53.316;8.670;2023-07-24T11:03:31;8.05;;;5.97;;
46815;SDS011;32787;53.316;8.670;2023-07-24T11:05:57;10.10;;;6.20;;
46815;SDS011;32787;53.316;8.670;2023-07-24T11:08:24;9.73;;;6.25;;
46815;SDS011;32787;53.316;8.670;2023-07-24T11:15:53;8.48;;;5.50;;
46815;SDS011;32787;53.316;8.670;2023-07-24T11:18:19;11.35;;;6.18;;
46815;SDS011;32787;53.316;8.670;2023-07-24T11:20:51;9.88;;;4.88;;
46815;SDS011;32787;53.316;8.670;2023-07-24T11:23:20;9.23;;;5.70;;
46815;SDS011;32787;53.316;8.670;2023-07-24T11:25:47;7.78;;;4.95;;
46815;SDS011;32787;53.316;8.670;2023-07-24T11:28:16;11.27;;;5.35;;
46815;SDS011;32787;53.316;8.670;2023-07-24T11:30:42;7.53;;;4.88;;
46815;SDS011;32787;53.316;8.670;2023-07-24T11:33:09;8.73;;;4.95;;
46815;SDS011;32787;53.316;8.670;2023-07-24T11:35:36;7.28;;;4.88;;
46815;SDS011;32787;53.316;8.670;2023-07-24T11:38:06;11.10;;;5.00;;
46815;SDS011;32787;53.316;8.670;2023-07-24T11:40:43;7.72;;;5.05;;
46815;SDS011;32787;53.316;8.670;2023-07-24T11:43:44;7.50;;;5.18;;
46815;SDS011;32787;53.316;8.670;2023-07-24T11:46:09;11.13;;;5.63;;
46815;SDS011;32787;53.316;8.670;2023-07-24T11:48:40;9.85;;;5.32;;
46815;SDS011;32787;53.316;8.670;2023-07-24T11:51:06;9.55;;;5.43;;
46815;SDS011;32787;53.316;8.670;2023-07-24T11:53:32;9.15;;;5.75;;
46815;SDS011;32787;53.316;8.670;2023-07-24T11:55:58;10.10;;;4.80;;
46815;SDS011;32787;53.316;8.670;2023-07-24T11:58:30;8.05;;;4.95;;
46815;SDS011;32787;53.316;8.670;2023-07-24T12:00:56;7.38;;;4.60;;
46815;SDS011;32787;53.316;8.670;2023-07-24T12:03:22;7.20;;;4.70;;
46815;SDS011;32787;53.316;8.670;2023-07-24T12:05:50;7.90;;;4.72;;
46815;SDS011;32787;53.316;8.670;2023-07-24T12:08:16;8.93;;;4.20;;
46815;SDS011;32787;53.316;8.670;2023-07-24T12:10:48;7.50;;;4.32;;
46815;SDS011;32787;53.316;8.670;2023-07-24T12:13:14;8.52;;;4.82;;
46815;SDS011;32787;53.316;8.670;2023-07-24T12:15:40;7.25;;;4.50;;
46815;SDS011;32787;53.316;8.670;2023-07-24T12:18:06;7.68;;;4.80;;
46815;SDS011;32787;53.316;8.670;2023-07-24T12:20:31;7.05;;;4.68;;
46815;SDS011;32787;53.316;8.670;2023-07-24T12:22:57;8.35;;;4.78;;
46815;SDS011;32787;53.316;8.670;2023-07-24T12:25:23;8.90;;;5.15;;
46815;SDS011;32787;53.316;8.670;2023-07-24T12:27:49;9.20;;;4.72;;
46815;SDS011;32787;53.316;8.670;2023-07-24T12:30:15;7.88;;;4.60;;
46815;SDS011;32787;53.316;8.670;2023-07-24T12:32:40;7.68;;;4.85;;
46815;SDS011;32787;53.316;8.670;2023-07-24T12:35:07;7.55;;;4.25;;
46815;SDS011;32787;53.316;8.670;2023-07-24T12:37:34;7.63;;;4.43;;
46815;SDS011;32787;53.316;8.670;2023-07-24T12:39:59;8.13;;;4.68;;
46815;SDS011;32787;53.316;8.670;2023-07-24T12:42:25;7.47;;;4.63;;
46815;SDS011;32787;53.316;8.670;2023-07-24T12:44:51;7.03;;;4.18;;
46815;SDS011;32787;53.316;8.670;2023-07-24T12:47:17;8.45;;;4.85;;
46815;SDS011;32787;53.316;8.670;2023-07-24T12:49:43;7.45;;;4.80;;
46815;SDS011;32787;53.316;8.670;2023-07-24T12:52:09;6.78;;;4.30;;
46815;SDS011;32787;53.316;8.670;2023-07-24T12:54:36;7.38;;;4.20;;
46815;SDS011;32787;53.316;8.670;2023-07-24T12:57:01;7.60;;;4.45;;
46815;SDS011;32787;53.316;8.670;2023-07-24T12:59:27;8.20;;;4.38;;
46815;SDS011;32787;53.316;8.670;2023-07-24T13:01:53;7.22;;;4.53;;
46815;SDS011;32787;53.316;8.670;2023-07-24T13:04:19;7.95;;;4.20;;
46815;SDS011;32787;53.316;8.670;2023-07-24T13:06:45;7.93;;;5.10;;
46815;SDS011;32787;53.316;8.670;2023-07-24T13:09:11;7.10;;;4.75;;
46815;SDS011;32787;53.316;8.670;2023-07-24T13:11:37;7.60;;;4.90;;
46815;SDS011;32787;53.316;8.670;2023-07-24T13:14:02;6.82;;;4.72;;
46815;SDS011;32787;53.316;8.670;2023-07-24T13:16:28;8.20;;;4.95;;
46815;SDS011;32787;53.316;8.670;2023-07-24T13:18:54;7.75;;;4.55;;
46815;SDS011;32787;53.316;8.670;2023-07-24T13:21:19;9.95;;;4.93;;
46815;SDS011;32787;53.316;8.670;2023-07-24T13:23:45;7.70;;;4.30;;
46815;SDS011;32787;53.316;8.670;2023-07-24T13:26:11;7.72;;;4.63;;
46815;SDS011;32787;53.316;8.670;2023-07-24T13:28:38;7.85;;;4.50;;
46815;SDS011;32787;53.316;8.670;2023-07-24T13:31:14;8.00;;;4.45;;
46815;SDS011;32787;53.316;8.670;2023-07-24T13:33:40;7.47;;;4.80;;
46815;SDS011;32787;53.316;8.670;2023-07-24T13:36:06;8.85;;;4.85;;
46815;SDS011;32787;53.316;8.670;2023-07-24T13:38:32;9.90;;;5.45;;
46815;SDS011;32787;53.316;8.670;2023-07-24T13:40:57;9.95;;;5.70;;
46815;SDS011;32787;53.316;8.670;2023-07-24T13:43:23;9.88;;;5.43;;
46815;SDS011;32787;53.316;8.670;2023-07-24T13:45:49;8.30;;;5.57;;
46815;SDS011;32787;53.316;8.670;2023-07-24T13:48:15;8.38;;;5.45;;
46815;SDS011;32787;53.316;8.670;2023-07-24T13:50:40;7.32;;;5.32;;
46815;SDS011;32787;53.316;8.670;2023-07-24T13:53:06;9.45;;;5.45;;
46815;SDS011;32787;53.316;8.670;2023-07-24T13:55:31;11.82;;;5.85;;
46815;SDS011;32787;53.316;8.670;2023-07-24T13:57:57;7.80;;;5.20;;
46815;SDS011;32787;53.316;8.670;2023-07-24T14:00:22;9.48;;;5.85;;
46815;SDS011;32787;53.316;8.670;2023-07-24T14:02:48;8.50;;;5.38;;
46815;SDS011;32787;53.316;8.670;2023-07-24T14:05:15;9.05;;;5.95;;
46815;SDS011;32787;53.316;8.670;2023-07-24T14:07:41;7.78;;;5.22;;
46815;SDS011;32787;53.316;8.670;2023-07-24T14:10:06;8.20;;;5.47;;
46815;SDS011;32787;53.316;8.670;2023-07-24T14:12:33;11.45;;;5.47;;
46815;SDS011;32787;53.316;8.670;2023-07-24T14:14:58;10.00;;;5.65;;
46815;SDS011;32787;53.316;8.670;2023-07-24T14:17:24;6.30;;;3.33;;
46815;SDS011;32787;53.316;8.670;2023-07-24T14:19:49;5.82;;;3.22;;
46815;SDS011;32787;53.316;8.670;2023-07-24T14:22:15;5.65;;;2.63;;
46815;SDS011;32787;53.316;8.670;2023-07-24T14:24:40;5.65;;;2.50;;
46815;SDS011;32787;53.316;8.670;2023-07-24T14:27:06;5.75;;;2.83;;
46815;SDS011;32787;53.316;8.670;2023-07-24T14:29:32;6.85;;;3.10;;
46815;SDS011;32787;53.316;8.670;2023-07-24T14:31:57;6.70;;;2.63;;
46815;SDS011;32787;53.316;8.670;2023-07-24T14:34:23;6.88;;;2.78;;
46815;SDS011;32787;53.316;8.670;2023-07-24T14:36:48;7.15;;;2.47;;
46815;SDS011;32787;53.316;8.670;2023-07-24T14:39:14;7.32;;;2.58;;
46815;SDS011;32787;53.316;8.670;2023-07-24T14:41:40;6.90;;;2.47;;
46815;SDS011;32787;53.316;8.670;2023-07-24T14:44:05;5.88;;;2.53;;
46815;SDS011;32787;53.316;8.670;2023-07-24T14:46:31;6.88;;;2.70;;
46815;SDS011;32787;53.316;8.670;2023-07-24T14:48:57;5.35;;;2.78;;
46815;SDS011;32787;53.316;8.670;2023-07-24T14:51:23;7.30;;;2.88;;
46815;SDS011;32787;53.316;8.670;2023-07-24T14:53:53;5.68;;;2.60;;